Terminal Aerodrome Forecast
Issued by NWS

Current Version | Previous Version | Text Only | Print | Product List | Glossary On
Versions: 1 2 3 4 5 6 7 8 9 10 11 12 13 14
000
FTUS46 KPDT 021138
TAFYKM
TAF
KYKM 021138Z 0212/0312 30006KT P6SM BKN080
     FM021800 29014G19KT P6SM SCT060 BKN100
     FM030500 30006KT P6SM BKN110=

USA.gov is the U.S. government's official web portal to all federal, state and local government web resources and services.